Latest Coastal Weather Observations for Hogan Island

IDV60701

Issued at 12:05 am EST Friday 22 August 2014 (issued every 10 minutes, with the page automatically refreshed every 10 minutes)

About coastal observations | Map of coastal stations | Coastal observations for VIC | Marine services | Other Formats
Station Details ID: 200838 Name: HOGAN ISLAND Lat: -39.22 Lon: 146.98 Height: 116.0 m
Data from the previous 72 hours. | See also: Recent months at Hogan Island
Date/Time
EST
Temp

°C
Wind Pressure Rain
since 9am
mm
Weather Cloud Vis
km
Sea
Height
m
Swell
Dir
 
Speed
knots
Gust
knots
hPa Trend Height
m
Period
s
Dir
22/12:00am 11.8 ENE 19 22 1031.3 - 0.0 - - - - - - -
 
Date/Time
EST
Temp

°C
Wind Pressure Rain
since 9am
mm
Weather Cloud Vis
km
Sea
Height
m
Swell
Dir
 
Speed
knots
Gust
knots
hPa Trend Height
m
Period
s
Dir
21/11:30pm 11.6 ENE 19 21 1031.3 - 0.0 - - - - - - -
21/11:00pm 11.5 ENE 18 21 1031.4 - 0.0 - - - - - - -
21/10:30pm 11.5 ENE 18 20 1031.4 - 0.0 - - - - - - -
21/10:00pm 11.6 ENE 19 22 1031.5 - 0.0 - - - - - - -
21/09:30pm 11.8 ENE 19 23 1031.4 - 0.0 - - - - - - -
21/09:00pm 11.4 ENE 19 23 1031.5 - 0.0 - - - - - - -
21/08:30pm 11.5 ENE 20 23 1031.2 - 0.0 - - - - - - -
21/08:00pm 11.7 E 19 24 1031.0 - 0.0 - - - - - - -
21/07:30pm 11.6 E 18 22 1030.8 - 0.0 - - - - - - -
21/07:00pm 11.5 E 17 20 1030.6 - 0.0 - - - - - - -
21/06:30pm 11.4 E 17 19 1030.5 - 0.0 - - - - - - -
21/06:00pm 11.5 E 16 20 1030.4 - 0.0 - - - - - - -
21/05:30pm 11.6 E 15 20 1030.1 - 0.0 - - - - - - -
21/05:00pm 12.0 E 15 19 1029.8 - 0.0 - - - - - - -
21/04:30pm 12.2 ENE 16 18 1029.6 - 0.0 - - - - - - -
21/04:00pm 12.5 E 18 21 1029.5 - 0.0 - - - - - - -
21/03:30pm 13.1 E 18 22 1029.4 - 0.0 - - - - - - -
21/03:00pm 13.2 E 19 22 1029.5 - 0.0 - - - - - - -
21/02:30pm 13.3 ENE 16 20 1029.5 - 0.0 - - - - - - -
21/02:00pm 13.9 ENE 17 20 1029.6 - 0.0 - - - - - - -
21/01:30pm 14.1 ENE 16 19 1029.9 - 0.0 - - - - - - -
21/01:00pm 13.7 ENE 16 18 1030.1 - 0.0 - - - - - - -
21/12:30pm 13.8 ENE 16 18 1030.3 - 0.0 - - - - - - -
21/12:00pm 13.5 ENE 17 20 1030.6 - 0.0 - - - - - - -
21/11:30am 13.3 E 18 22 1030.7 - 0.0 - - - - - - -
21/11:00am 13.4 E 19 22 1030.8 - 0.0 - - - - - - -
21/10:30am 13.2 E 19 22 1031.0 - 0.0 - - - - - - -
21/10:00am 13.1 E 18 21 1031.0 - 0.0 - - - - - - -
21/09:30am 12.0 E 18 20 1030.7 - 0.0 - - - - - - -
21/09:00am 12.1 E 18 21 1030.8 - 0.0 - - - - - - -
21/08:30am 11.6 E 18 20 1030.8 - 0.0 - - - - - - -
21/08:00am 11.0 E 16 18 1030.7 - 0.0 - - - - - - -
21/07:30am 9.7 E 16 18 1030.3 - 0.0 - - - - - - -
21/07:00am 9.7 E 16 17 1030.0 - 0.0 - - - - - - -
21/06:30am 9.5 E 16 18 1030.0 - 0.0 - - - - - - -
21/06:00am 9.5 E 15 17 1029.8 - 0.0 - - - - - - -
21/05:30am 9.0 E 13 15 1029.6 - 0.0 - - - - - - -
21/05:00am 9.1 E 14 16 1029.4 - 0.0 - - - - - - -
21/04:30am 9.0 E 14 17 1029.1 - 0.0 - - - - - - -
21/04:00am 9.0 E 14 16 1028.9 - 0.0 - - - - - - -
21/03:30am 8.8 E 12 13 1028.9 - 0.0 - - - - - - -
21/03:00am 8.3 E 11 12 1028.9 - 0.0 - - - - - - -
21/02:30am 8.2 E 9 10 1029.0 - 0.0 - - - - - - -
21/02:00am 8.5 E 7 8 1029.0 - 0.0 - - - - - - -
21/01:30am 8.5 NE 7 10 1029.1 - 0.0 - - - - - - -
21/01:00am 8.7 NE 10 12 1029.0 - 0.0 - - - - - - -
21/12:30am 8.6 NE 10 12 1029.0 - 0.0 - - - - - - -
21/12:00am 9.3 NE 9 12 1029.0 - 0.0 - - - - - - -
 
Date/Time
EST
Temp

°C
Wind Pressure Rain
since 9am
mm
Weather Cloud Vis
km
Sea
Height
m
Swell
Dir
 
Speed
knots
Gust
knots
hPa Trend Height
m
Period
s
Dir
20/11:30pm 9.8 NE 9 11 1029.0 - 0.0 - - - - - - -
20/11:00pm 9.9 E 9 10 1028.9 - 0.0 - - - - - - -
20/10:30pm 9.6 ENE 6 8 1028.9 - 0.0 - - - - - - -
20/10:00pm 9.7 NE 5 6 1029.1 - 0.0 - - - - - - -
20/09:30pm 9.8 ENE 1 4 1029.0 - 0.0 - - - - - - -
20/09:00pm 9.2 NE 4 5 1029.0 - 0.0 - - - - - - -
20/08:30pm 9.5 CALM 0 3 1028.5 - 0.0 - - - - - - -
20/08:00pm 9.8 NNW 3 3 1028.4 - 0.0 - - - - - - -
20/07:30pm 9.8 NW 1 3 1028.1 - 0.0 - - - - - - -
20/07:00pm 9.2 WNW 4 6 1027.9 - 0.0 - - - - - - -
20/06:30pm 8.9 W 4 6 1027.6 - 0.0 - - - - - - -
20/06:00pm 8.9 W 7 9 1027.4 - 0.0 - - - - - - -
20/05:30pm 9.6 W 7 9 1026.9 - 0.0 - - - - - - -
20/05:00pm 10.6 WSW 8 11 1026.6 - 0.0 - - - - - - -
20/04:30pm 11.3 W 10 13 1026.3 - 0.0 - - - - - - -
20/04:00pm 11.9 W 9 12 1026.1 - 0.0 - - - - - - -
20/03:30pm 12.2 W 11 14 1025.9 - 0.0 - - - - - - -
20/03:00pm 12.4 W 12 15 1026.0 - 0.0 - - - - - - -
20/02:30pm 12.5 W 11 15 1025.6 - 0.0 - - - - - - -
20/02:00pm 13.1 W 12 14 1025.6 - 0.0 - - - - - - -
20/01:30pm 12.7 W 10 13 1025.6 - 0.0 - - - - - - -
20/01:00pm 11.1 W 11 13 1025.7 - 0.0 - - - - - - -
20/12:30pm 11.8 W 6 9 1025.9 - 0.0 - - - - - - -
20/12:00pm 12.0 W 7 8 1026.4 - 0.0 - - - - - - -
20/11:30am 11.8 WSW 8 10 1026.4 - 0.0 - - - - - - -
20/11:00am 11.6 W 15 18 1026.3 - 0.0 - - - - - - -
20/10:30am 10.6 W 18 22 1026.2 - 0.0 - - - - - - -
20/10:00am 11.0 WSW 11 13 1026.2 - 0.0 - - - - - - -
20/09:30am 10.5 WSW 13 16 1026.1 - 0.0 - - - - - - -
20/09:00am 10.5 SW 12 15 1026.0 - 0.0 - - - - - - -
20/08:30am 10.4 WSW 12 15 1025.7 - 0.0 - - - - - - -
20/08:00am 9.8 WSW 14 17 1025.4 - 0.0 - - - - - - -
20/07:30am 9.3 WSW 13 15 1025.2 - 0.0 - - - - - - -
20/07:00am 9.4 SW 13 16 1024.9 - 0.0 - - - - - - -
20/06:30am 9.3 WSW 15 17 1024.6 - 0.0 - - - - - - -
20/06:00am 9.4 WSW 14 17 1024.4 - 0.0 - - - - - - -
20/05:30am 9.1 W 11 14 1024.2 - 0.0 - - - - - - -
20/05:00am 9.5 SW 15 19 1024.1 - 0.0 - - - - - - -
20/04:30am 9.6 SW 16 19 1024.0 - 0.0 - - - - - - -
20/04:00am 9.9 SW 12 17 1024.1 - 0.0 - - - - - - -
20/03:30am 9.4 SW 15 17 1024.1 - 0.0 - - - - - - -
20/03:00am 9.9 WSW 16 20 1024.1 - 0.0 - - - - - - -
20/02:30am 9.8 WSW 15 20 1024.2 - 0.0 - - - - - - -
20/02:00am 10.4 WSW 14 20 1024.3 - 0.0 - - - - - - -
20/01:30am 10.6 WSW 16 19 1024.3 - 0.0 - - - - - - -
20/01:00am 10.6 W 13 17 1024.4 - 0.0 - - - - - - -
20/12:30am 10.4 WSW 15 21 1024.4 - 0.0 - - - - - - -
20/12:00am 10.6 WSW 14 20 1024.4 - 0.0 - - - - - - -
 
Date/Time
EST
Temp

°C
Wind Pressure Rain
since 9am
mm
Weather Cloud Vis
km
Sea
Height
m
Swell
Dir
 
Speed
knots
Gust
knots
hPa Trend Height
m
Period
s
Dir
19/11:30pm 10.4 WSW 11 18 1024.4 - 0.0 - - - - - - -
19/11:00pm 10.2 W 11 14 1024.5 - 0.0 - - - - - - -
19/10:30pm 9.6 WSW 13 17 1024.7 - 0.0 - - - - - - -
19/10:00pm 9.8 WSW 16 19 1024.6 - 0.0 - - - - - - -
19/09:30pm 10.0 WSW 13 16 1024.7 - 0.0 - - - - - - -
19/09:00pm 9.5 WSW 12 15 1024.8 - 0.0 - - - - - - -
19/08:30pm 9.4 WSW 13 17 1024.6 - 0.0 - - - - - - -
19/08:00pm 9.1 WSW 14 17 1024.5 - 0.0 - - - - - - -
19/07:30pm 9.6 WSW 16 19 1024.4 - 0.0 - - - - - - -
19/07:00pm 9.9 WSW 16 18 1024.1 - 0.0 - - - - - - -
19/06:30pm 9.8 SW 13 16 1023.8 - 0.0 - - - - - - -
19/06:00pm 10.3 SW 14 16 1023.6 - 0.0 - - - - - - -
19/05:30pm 10.4 W 14 16 1023.3 - 0.0 - - - - - - -
19/05:00pm 10.9 W 13 16 1023.0 - 0.0 - - - - - - -
19/04:30pm 11.6 WSW 14 17 1023.0 - 0.0 - - - - - - -
19/04:00pm 12.4 WSW 14 17 1023.1 - 0.0 - - - - - - -
19/03:30pm 12.3 WSW 11 14 1023.1 - 0.0 - - - - - - -
19/03:00pm 12.9 SW 10 13 1023.3 - 0.0 - - - - - - -
19/02:30pm 13.2 WSW 11 13 1023.1 - 0.0 - - - - - - -
19/02:00pm 13.4 WSW 12 15 1023.0 - 0.0 - - - - - - -
19/01:30pm 13.5 WSW 11 14 1023.1 - 0.0 - - - - - - -
19/01:00pm 13.4 WSW 12 15 1023.3 - 0.0 - - - - - - -
19/12:30pm 13.1 SW 12 14 1023.6 - 0.0 - - - - - - -
19/12:00pm 12.5 SW 11 13 1024.0 - 0.0 - - - - - - -
19/11:30am 12.2 S 6 8 1024.2 - 0.0 - - - - - - -
19/11:00am 12.0 S 7 8 1024.3 - 0.0 - - - - - - -
19/10:30am 12.1 SSE 7 8 1024.2 - 0.0 - - - - - - -
19/10:00am 12.2 SSE 8 10 1024.2 - 0.0 - - - - - - -
19/09:30am 11.1 SSE 9 11 1024.2 - 0.0 - - - - - - -
19/09:00am 11.0 S 8 10 1024.3 - 0.0 - - - - - - -
19/08:30am 10.7 SSE 7 10 1024.2 - 0.0 - - - - - - -
19/08:00am 10.5 SSE 8 11 1024.0 - 0.0 - - - - - - -
19/07:30am 10.1 SE 9 12 1023.8 - 0.0 - - - - - - -
19/07:00am 10.0 SE 11 13 1023.4 - 0.0 - - - - - - -
19/06:30am 10.1 SSE 11 13 1023.2 - 0.0 - - - - - - -
19/06:00am 10.2 SSE 12 16 1023.1 - 0.0 - - - - - - -
19/05:30am 10.1 S 12 16 1022.9 - 0.0 - - - - - - -
19/05:00am 10.1 SE 15 18 1022.6 - 0.0 - - - - - - -
19/04:30am 10.1 SSE 14 17 1022.6 - 0.0 - - - - - - -
19/04:00am 10.0 SSE 15 17 1022.5 - 0.0 - - - - - - -
19/03:30am 9.9 SSE 15 18 1022.5 - 0.0 - - - - - - -
19/03:00am 9.5 SSE 15 18 1022.6 - 0.0 - - - - - - -
19/02:30am 9.6 SSE 16 19 1022.6 - 0.0 - - - - - - -
19/02:00am 9.6 SSE 15 18 1022.7 - 0.0 - - - - - - -
19/01:30am 9.8 SSE 16 19 1022.8 - 0.0 - - - - - - -
19/01:00am 10.2 SSE 16 19 1022.8 - 0.0 - - - - - - -
19/12:30am 10.1 SSE 15 18 1022.7 - 0.0 - - - - - - -

Other Formats:

Comma delimited format used in spreadsheet applications
http://www.bom.gov.au/fwo/IDV60701/IDV60701.94949.axf

JavaScript Object Notation format (JSON) in row-major order
http://www.bom.gov.au/fwo/IDV60701/IDV60701.94949.json